Time;durP1;ratioP1;P1;durP2;ratioP2;P2;SDS_P1;SDS_P2;PMS_P1;PMS_P2;Temp;Humidity;BMP_temperature;BMP_pressure;BME280_temperature;BME280_humidity;BME280_pressure;Samples;Min_cycle;Max_cycle;Signal;HPM_P1;HPM_P2
2023/01/25 00:00:21;;;;;;;19.80;12.13;;;;;;;0.60;88.99;103860.75;6189295;23;20436;-75
2023/01/25 00:02:48;;;;;;;21.20;11.93;;;;;;;0.61;88.88;103851.81;6189647;23;20018;-75
2023/01/25 00:05:14;;;;;;;17.67;11.95;;;;;;;0.61;88.56;103851.81;6189353;23;20092;-75
2023/01/25 00:07:41;;;;;;;20.02;13.13;;;;;;;0.58;88.71;103844.53;6163174;23;20013;-75
2023/01/25 00:10:08;;;;;;;19.90;11.45;;;;;;;0.59;88.41;103846.06;6188945;23;20431;-75
2023/01/25 00:12:34;;;;;;;16.30;11.73;;;;;;;0.52;88.78;103846.47;6189056;23;20024;-75
2023/01/25 00:15:01;;;;;;;19.23;11.70;;;;;;;0.50;89.10;103843.38;6188980;23;20024;-75
2023/01/25 00:17:28;;;;;;;21.30;12.25;;;;;;;0.45;89.10;103845.31;6189543;23;20021;-75
2023/01/25 00:19:54;;;;;;;19.02;12.88;;;;;;;0.41;88.96;103845.13;6162586;23;20021;-75
2023/01/25 00:22:21;;;;;;;17.77;11.88;;;;;;;0.40;89.09;103837.59;6162462;23;20026;-75
2023/01/25 00:24:47;;;;;;;17.88;12.27;;;;;;;0.39;89.26;103843.91;6189674;23;20021;-75
2023/01/25 00:27:14;;;;;;;18.52;11.93;;;;;;;0.44;89.42;103838.53;6188034;23;20018;-75
2023/01/25 00:29:40;;;;;;;18.40;12.55;;;;;;;0.46;89.33;103833.75;6162837;23;20021;-75
2023/01/25 00:32:31;;;;;;;17.50;11.68;;;;;;;0.47;89.17;103833.47;6189544;23;20448;-75
2023/01/25 00:34:57;;;;;;;19.80;12.90;;;;;;;0.49;89.17;103830.56;6190089;23;20326;-75
2023/01/25 00:37:34;;;;;;;17.00;11.55;;;;;;;0.49;88.66;103839.19;6163071;23;20096;-75
2023/01/25 00:40:01;;;;;;;18.88;12.15;;;;;;;0.46;88.85;103828.53;6162011;23;20053;-75
2023/01/25 00:42:27;;;;;;;18.50;11.73;;;;;;;0.48;88.59;103826.38;6189289;23;20452;-75
2023/01/25 00:44:54;;;;;;;17.05;11.80;;;;;;;0.47;88.49;103830.84;6162246;23;20028;-75
2023/01/25 00:47:20;;;;;;;17.90;11.88;;;;;;;0.47;88.20;103828.22;6162251;23;20418;-75
2023/01/25 00:49:47;;;;;;;20.77;12.63;;;;;;;0.43;88.30;103823.88;6162633;23;20389;-75
2023/01/25 00:52:14;;;;;;;21.73;12.27;;;;;;;0.42;88.54;103819.69;6189178;23;20025;-75
2023/01/25 00:54:40;;;;;;;19.27;12.35;;;;;;;0.40;88.45;103819.25;6188808;23;20018;-75
2023/01/25 00:57:08;;;;;;;23.38;12.40;;;;;;;0.38;88.45;103821.38;6186479;23;20021;-75
2023/01/25 00:59:35;;;;;;;19.30;11.93;;;;;;;0.38;88.28;103814.28;6162366;23;20025;-75
2023/01/25 01:02:02;;;;;;;22.83;13.43;;;;;;;0.38;88.41;103814.28;6161868;23;20538;-75
2023/01/25 01:04:29;;;;;;;20.02;12.13;;;;;;;0.38;88.41;103813.53;6189475;23;20312;-75
2023/01/25 01:06:56;;;;;;;19.30;11.93;;;;;;;0.38;88.47;103816.91;6162246;23;20045;-75
2023/01/25 01:09:22;;;;;;;20.13;12.70;;;;;;;0.38;88.25;103816.91;6161837;23;20029;-75
2023/01/25 01:11:51;;;;;;;19.67;12.40;;;;;;;0.34;88.38;103823.81;6162054;23;20460;-75
2023/01/25 01:14:18;;;;;;;20.83;13.25;;;;;;;0.33;88.00;103820.41;6162218;23;20021;-75
2023/01/25 01:16:46;;;;;;;21.88;13.25;;;;;;;0.33;88.38;103817.78;6189129;23;20017;-75
2023/01/25 01:19:12;;;;;;;23.05;13.45;;;;;;;0.36;88.20;103813.81;6188393;23;20017;-75
2023/01/25 01:21:39;;;;;;;18.77;12.13;;;;;;;0.37;88.39;103814.59;6162395;23;20053;-75
2023/01/25 01:24:06;;;;;;;21.58;12.65;;;;;;;0.35;88.24;103807.03;6187908;23;20013;-75
2023/01/25 01:26:32;;;;;;;19.63;13.02;;;;;;;0.33;88.31;103809.94;6189122;23;20083;-75
2023/01/25 01:28:59;;;;;;;21.58;12.65;;;;;;;0.32;88.36;103816.25;6188670;23;20029;-75
2023/01/25 01:31:27;;;;;;;23.15;13.45;;;;;;;0.31;88.23;103811.28;6189128;23;20146;-75
2023/01/25 01:34:11;;;;;;;20.17;12.63;;;;;;;0.29;88.25;103811.59;6161923;23;20021;-75
2023/01/25 01:36:38;;;;;;;25.77;13.50;;;;;;;0.29;88.47;103814.22;6188801;23;20020;-75
2023/01/25 01:39:05;;;;;;;19.77;12.30;;;;;;;0.32;88.45;103812.84;6187830;23;20017;-75
2023/01/25 01:41:32;;;;;;;19.10;12.50;;;;;;;0.33;88.61;103801.28;6162631;23;20024;-75
2023/01/25 01:43:58;;;;;;;24.00;12.43;;;;;;;0.37;88.61;103796.25;6162084;23;20022;-75
2023/01/25 01:46:36;;;;;;;25.17;13.52;;;;;;;0.37;88.52;103804.88;6188669;23;20018;-75
2023/01/25 01:49:25;;;;;;;28.42;14.18;;;;;;;0.34;88.42;103797.59;6161673;23;20490;-75
2023/01/25 01:52:29;;;;;;;19.15;12.80;;;;;;;0.32;88.67;103799.75;6161553;23;20109;-75
2023/01/25 01:55:01;;;;;;;20.33;13.63;;;;;;;0.26;88.67;103800.91;6191038;23;20014;-75
2023/01/25 01:57:35;;;;;;;24.83;14.63;;;;;;;0.27;88.65;103799.84;6189064;23;20010;-76
2023/01/25 02:00:17;;;;;;;22.60;13.55;;;;;;;0.27;88.85;103803.25;6186663;23;20092;-75
2023/01/25 02:02:46;;;;;;;24.65;14.07;;;;;;;0.21;88.95;103799.16;6163314;23;20489;-75
2023/01/25 02:05:21;;;;;;;21.88;13.23;;;;;;;0.17;88.85;103800.81;6211222;23;20392;-75
2023/01/25 02:07:50;;;;;;;22.77;14.38;;;;;;;0.14;89.08;103792.78;6187955;23;20069;-75
2023/01/25 02:10:20;;;;;;;22.98;13.23;;;;;;;0.13;89.11;103788.59;6186956;23;20021;-75
2023/01/25 02:12:48;;;;;;;24.65;14.35;;;;;;;0.04;89.06;103791.13;6186464;23;20017;-75
2023/01/25 02:15:15;;;;;;;23.38;12.93;;;;;;;-0.03;89.18;103788.16;6186813;23;20072;-75
2023/01/25 02:17:41;;;;;;;23.25;13.75;;;;;;;-0.05;89.68;103787.66;6185725;23;20053;-75
2023/01/25 02:20:31;;;;;;;22.88;13.80;;;;;;;-0.04;89.54;103789.22;6185785;23;20441;-76
2023/01/25 02:23:02;;;;;;;24.25;13.98;;;;;;;-0.02;89.73;103787.09;6187166;23;20484;-75
2023/01/25 02:25:29;;;;;;;25.75;14.30;;;;;;;-0.01;89.97;103776.31;6187072;23;20021;-75
2023/01/25 02:28:15;;;;;;;24.23;14.82;;;;;;;0.01;89.41;103783.84;6187310;23;20099;-75
2023/01/25 02:30:43;;;;;;;24.55;13.82;;;;;;;-0.01;89.31;103780.78;6187651;23;20021;-75
2023/01/25 02:33:09;;;;;;;22.10;14.02;;;;;;;0.00;89.00;103777.09;6187663;23;20045;-75
2023/01/25 02:35:45;;;;;;;26.75;13.57;;;;;;;-0.06;89.14;103778.25;6188675;23;20017;-75
2023/01/25 02:38:17;;;;;;;22.75;13.93;;;;;;;-0.08;89.52;103781.16;6186545;23;20026;-75
2023/01/25 02:40:50;;;;;;;24.23;14.63;;;;;;;-0.07;89.28;103774.09;6186496;23;20467;-75
2023/01/25 02:43:18;;;;;;;20.55;12.73;;;;;;;-0.01;89.38;103772.94;6186356;23;20092;-75
2023/01/25 02:45:55;;;;;;;21.60;13.32;;;;;;;0.02;89.40;103776.78;6186774;23;20022;-75
2023/01/25 02:48:22;;;;;;;20.95;13.52;;;;;;;0.04;89.15;103779.88;6186593;23;20028;-75
2023/01/25 02:50:48;;;;;;;23.73;13.70;;;;;;;0.06;89.22;103770.66;6187008;23;20036;-75
2023/01/25 02:53:15;;;;;;;23.50;13.65;;;;;;;0.06;89.34;103775.13;6189498;23;20073;-75
2023/01/25 02:55:42;;;;;;;23.77;13.93;;;;;;;0.05;89.20;103766.50;6189661;23;20462;-75
2023/01/25 02:58:08;;;;;;;25.75;15.02;;;;;;;0.06;89.14;103768.03;6162640;23;20029;-75
2023/01/25 03:00:35;;;;;;;26.40;14.38;;;;;;;0.02;89.02;103761.84;6188015;23;20022;-75
2023/01/25 03:03:02;;;;;;;24.40;14.70;;;;;;;-0.01;89.34;103757.97;6187406;23;20060;-75
2023/01/25 03:05:28;;;;;;;26.42;15.10;;;;;;;-0.02;89.27;103750.41;6189444;23;20069;-74
2023/01/25 03:07:57;;;;;;;25.50;14.43;;;;;;;-0.04;89.23;103748.09;6187551;23;20017;-74
2023/01/25 03:10:23;;;;;;;23.90;13.55;;;;;;;0.00;89.52;103745.66;6187304;23;20113;-74
2023/01/25 03:12:53;;;;;;;26.45;14.27;;;;;;;-0.01;89.34;103744.88;6187343;23;20092;-74
2023/01/25 03:15:20;;;;;;;26.00;15.15;;;;;;;0.02;89.53;103740.88;6187622;23;20418;-74
2023/01/25 03:17:47;;;;;;;25.95;15.15;;;;;;;0.02;89.39;103747.97;6187964;23;20017;-74
2023/01/25 03:20:14;;;;;;;22.58;14.57;;;;;;;0.00;89.48;103748.28;6189060;23;20017;-74
2023/01/25 03:22:43;;;;;;;25.58;14.48;;;;;;;-0.02;89.56;103742.56;6187725;23;20024;-74
2023/01/25 03:25:09;;;;;;;25.45;15.07;;;;;;;-0.02;89.44;103743.34;6162539;23;20444;-74
2023/01/25 03:27:41;;;;;;;;;;;;;;;0.01;89.67;103744.56;6188160;23;20021;-74
2023/01/25 03:30:10;;;;;;;25.08;14.00;;;;;;;0.04;89.54;103730.09;6187226;23;20302;-74
2023/01/25 03:32:37;;;;;;;23.70;14.00;;;;;;;0.04;89.45;103725.66;6187954;23;20017;-75
2023/01/25 03:35:07;;;;;;;24.80;14.70;;;;;;;0.05;89.52;103723.81;6187074;23;20100;-74
2023/01/25 03:37:34;;;;;;;28.67;15.57;;;;;;;0.03;89.41;103718.84;6189754;23;20679;-75
2023/01/25 03:40:02;;;;;;;24.73;14.80;;;;;;;0.06;89.35;103720.88;6186924;23;20416;-74
2023/01/25 03:42:30;;;;;;;24.73;14.68;;;;;;;0.06;89.40;103707.78;6187724;23;20021;-74
2023/01/25 03:44:57;;;;;;;24.60;14.00;;;;;;;0.04;89.31;103704.69;6189299;23;20013;-74
2023/01/25 03:47:24;;;;;;;29.55;16.00;;;;;;;0.05;89.41;103702.84;6187387;23;20093;-76
2023/01/25 03:49:51;;;;;;;24.08;14.73;;;;;;;0.05;89.59;103701.00;6186529;23;20451;-75
2023/01/25 03:52:18;;;;;;;31.05;15.52;;;;;;;0.03;89.20;103702.38;6189205;23;20530;-75
2023/01/25 03:54:45;;;;;;;24.02;14.85;;;;;;;-0.02;89.33;103698.03;6162414;23;20021;-75
2023/01/25 03:57:12;;;;;;;25.48;15.10;;;;;;;-0.07;89.88;103698.13;6161779;23;20021;-75
2023/01/25 03:59:53;;;;;;;26.88;14.98;;;;;;;-0.08;90.16;103707.06;6162206;23;20018;-76
2023/01/25 04:02:19;;;;;;;23.65;14.63;;;;;;;-0.07;90.36;103704.16;6162115;23;20018;-76
2023/01/25 04:04:46;;;;;;;30.40;16.35;;;;;;;-0.05;90.39;103707.25;6189133;23;20329;-76
2023/01/25 04:07:15;;;;;;;24.50;15.27;;;;;;;-0.07;90.25;103709.38;6162363;23;20021;-75
2023/01/25 04:09:42;;;;;;;24.40;15.30;;;;;;;-0.12;90.14;103704.25;6162778;23;20025;-76
2023/01/25 04:12:10;;;;;;;25.95;16.05;;;;;;;-0.15;89.97;103696.22;6162071;23;20529;-75
2023/01/25 04:14:37;;;;;;;26.90;16.45;;;;;;;-0.15;90.18;103704.84;6162821;23;20112;-75
2023/01/25 04:17:15;;;;;;;27.67;16.27;;;;;;;-0.15;90.39;103702.22;6161841;23;20017;-75
2023/01/25 04:19:48;;;;;;;29.48;16.77;;;;;;;-0.11;90.75;103703.19;6189785;23;20017;-75
2023/01/25 04:22:19;;;;;;;33.53;15.88;;;;;;;-0.08;90.44;103704.44;6189818;23;20025;-75
2023/01/25 04:24:47;;;;;;;27.58;15.55;;;;;;;-0.12;90.62;103703.47;6139068;23;20101;-74
2023/01/25 04:27:14;;;;;;;29.55;17.83;;;;;;;-0.12;90.49;103706.09;6163403;23;20021;-75
2023/01/25 04:29:51;;;;;;;29.70;16.98;;;;;;;-0.14;90.91;103703.00;6163725;23;20026;-75
2023/01/25 04:32:19;;;;;;;28.30;15.60;;;;;;;-0.19;90.79;103692.63;6163144;23;20459;-75
2023/01/25 04:34:46;;;;;;;29.40;16.10;;;;;;;-0.22;90.51;103693.97;6190764;23;20021;-75
2023/01/25 04:37:16;;;;;;;28.83;16.60;;;;;;;-0.23;90.70;103676.72;6163522;23;20018;-76
2023/01/25 04:39:56;;;;;;;27.52;15.90;;;;;;;-0.21;90.59;103682.44;6162652;23;20033;-75
2023/01/25 04:42:24;;;;;;;27.65;15.52;;;;;;;-0.27;90.55;103678.38;6189081;23;20018;-75
2023/01/25 04:44:54;;;;;;;27.15;15.85;;;;;;;-0.26;90.66;103673.91;6162100;23;20460;-75
2023/01/25 04:47:21;;;;;;;28.30;16.35;;;;;;;-0.27;90.92;103670.53;6161478;23;20506;-75
2023/01/25 04:49:48;;;;;;;28.75;16.20;;;;;;;-0.27;90.81;103664.50;6189108;23;20056;-75
2023/01/25 04:52:18;;;;;;;29.70;15.57;;;;;;;-0.30;90.58;103665.88;6162536;23;20021;-75
2023/01/25 04:54:45;;;;;;;31.48;16.63;;;;;;;-0.29;90.88;103661.41;6162732;23;20113;-75
2023/01/25 04:57:12;;;;;;;28.30;15.45;;;;;;;-0.31;90.63;103668.78;6188609;23;20017;-75
2023/01/25 04:59:41;;;;;;;27.83;15.63;;;;;;;-0.36;90.67;103667.03;6162435;23;20025;-75
2023/01/25 05:02:08;;;;;;;29.40;15.93;;;;;;;-0.37;90.57;103663.66;6161060;23;20475;-75
2023/01/25 05:04:34;;;;;;;26.38;15.40;;;;;;;-0.37;90.43;103666.25;6162390;23;20095;-75
2023/01/25 05:07:01;;;;;;;30.85;16.27;;;;;;;-0.39;90.70;103668.41;6162008;23;20101;-75
2023/01/25 05:09:28;;;;;;;30.77;17.27;;;;;;;-0.37;90.75;103668.88;6189289;23;20028;-75
2023/01/25 05:11:55;;;;;;;26.92;16.30;;;;;;;-0.39;90.48;103665.78;6188368;23;20452;-75
2023/01/25 05:14:26;;;;;;;28.30;16.65;;;;;;;-0.39;90.90;103659.78;6139069;23;20049;-75
2023/01/25 05:16:53;;;;;;;28.95;16.45;;;;;;;-0.37;91.10;103663.66;6161464;23;20024;-75
2023/01/25 05:19:20;;;;;;;26.13;15.77;;;;;;;-0.36;91.21;103661.81;6161758;23;20026;-75
2023/01/25 05:21:59;;;;;;;28.17;15.63;;;;;;;-0.38;91.29;103659.47;6162319;23;20069;-75
2023/01/25 05:24:34;;;;;;;27.88;15.90;;;;;;;-0.36;91.05;103651.34;6139149;23;20081;-76
2023/01/25 05:27:04;;;;;;;;;;;;;;;-0.43;91.04;103657.00;6162521;23;20049;-75
2023/01/25 05:29:46;;;;;;;;;;;;;;;-0.44;91.02;103652.81;6162302;23;19980;-75
2023/01/25 05:32:22;;;;;;;24.45;13.32;;;;;;;-0.44;91.22;103646.81;6162091;23;19920;-75
2023/01/25 05:34:48;;;;;;;29.45;15.15;;;;;;;-0.42;91.24;103647.28;6187186;23;20022;-75
2023/01/25 05:37:18;;;;;;;26.38;15.50;;;;;;;-0.42;91.35;103640.22;6161927;23;20025;-75
2023/01/25 05:39:46;;;;;;;29.00;16.08;;;;;;;-0.44;91.43;103652.81;6162120;23;20460;-75
2023/01/25 05:42:17;;;;;;;30.50;16.30;;;;;;;-0.45;91.51;103645.25;6188493;23;20096;-75
2023/01/25 05:44:45;;;;;;;;;;;;;;;-0.45;91.42;103640.03;6162392;23;20028;-75
2023/01/25 05:47:15;;;;;;;29.98;15.32;;;;;;;-0.46;91.65;103639.25;6161697;23;20307;-75
2023/01/25 05:49:45;;;;;;;29.83;14.73;;;;;;;-0.44;91.70;103644.97;6188554;23;20356;-75
2023/01/25 05:52:19;;;;;;;28.58;15.95;;;;;;;-0.44;91.50;103646.81;6161540;23;20014;-75
2023/01/25 05:54:46;;;;;;;29.15;16.10;;;;;;;-0.44;91.83;103649.44;6162424;23;20113;-75
2023/01/25 05:57:14;;;;;;;28.52;16.52;;;;;;;-0.51;91.90;103655.06;6137397;23;20456;-75
2023/01/25 05:59:41;;;;;;;29.25;16.83;;;;;;;-0.55;91.49;103659.31;6188252;23;20089;-75
2023/01/25 06:02:10;;;;;;;26.83;16.02;;;;;;;-0.55;91.51;103659.31;6137170;23;20088;-75
2023/01/25 06:04:38;;;;;;;29.27;16.45;;;;;;;-0.52;91.46;103656.13;6161826;23;20100;-75
2023/01/25 06:07:05;;;;;;;30.23;16.23;;;;;;;-0.54;91.64;103660.88;6161027;23;20096;-75
2023/01/25 06:09:33;;;;;;;34.00;16.45;;;;;;;-0.54;91.43;103663.50;6161943;23;20367;-75
2023/01/25 06:11:59;;;;;;;30.80;16.15;;;;;;;-0.58;91.12;103665.13;6161704;23;20026;-75
2023/01/25 06:14:27;;;;;;;31.75;15.80;;;;;;;-0.60;91.45;103664.66;6161391;23;20018;-75
2023/01/25 06:16:54;;;;;;;30.98;16.65;;;;;;;-0.59;91.18;103666.19;6188305;23;20437;-74
2023/01/25 06:19:58;;;;;;;30.45;16.70;;;;;;;-0.63;90.91;103662.63;6168060;23;20472;-75
2023/01/25 06:22:31;;;;;;;28.05;15.80;;;;;;;-0.64;91.17;103655.06;6188615;23;20045;-75
2023/01/25 06:24:58;;;;;;;33.20;16.27;;;;;;;-0.68;91.35;103658.25;6189543;23;20470;-75
2023/01/25 06:27:24;;;;;;;29.30;16.58;;;;;;;-0.65;91.31;103661.34;6189643;23;20041;-75
2023/01/25 06:29:51;;;;;;;27.25;16.20;;;;;;;-0.64;91.33;103663.69;6189376;23;20021;-76
2023/01/25 06:32:17;;;;;;;35.55;17.80;;;;;;;-0.60;91.57;103663.88;6190723;23;20021;-75
2023/01/25 06:34:45;;;;;;;29.77;15.90;;;;;;;-0.64;91.21;103662.91;6190652;23;20022;-76
2023/01/25 06:37:19;;;;;;;36.13;16.60;;;;;;;-0.69;91.29;103664.56;6188794;23;20436;-76
2023/01/25 06:39:45;;;;;;;33.85;16.90;;;;;;;-0.67;91.45;103659.81;6190455;23;20018;-75
2023/01/25 06:42:12;;;;;;;29.83;16.73;;;;;;;-0.65;91.82;103658.75;6190176;23;20017;-75
2023/01/25 06:44:39;;;;;;;32.45;17.23;;;;;;;-0.63;91.70;103654.00;6190604;23;20041;-75
2023/01/25 06:47:08;;;;;;;33.05;17.02;;;;;;;-0.61;91.80;103660.47;6190180;23;20049;-75
2023/01/25 06:49:34;;;;;;;31.90;17.10;;;;;;;-0.59;91.59;103657.56;6138566;23;20366;-75
2023/01/25 06:52:01;;;;;;;33.50;17.40;;;;;;;-0.62;91.64;103661.53;6190144;23;20018;-75
2023/01/25 06:54:27;;;;;;;29.27;16.60;;;;;;;-0.65;91.63;103664.75;6190584;23;20025;-75
2023/01/25 06:56:54;;;;;;;33.40;17.23;;;;;;;-0.66;91.35;103663.19;6189657;23;20020;-78
2023/01/25 06:59:20;;;;;;;35.13;18.10;;;;;;;-0.65;91.45;103661.34;6190450;23;20073;-78
2023/01/25 07:01:50;;;;;;;37.08;18.83;;;;;;;-0.71;91.72;103652.81;6190392;23;20306;-78
2023/01/25 07:04:16;;;;;;;31.90;18.08;;;;;;;-0.75;91.71;103657.09;6163555;23;20371;-77
2023/01/25 07:06:43;;;;;;;31.15;17.38;;;;;;;-0.77;91.38;103654.75;6190553;23;20024;-77
2023/01/25 07:09:12;;;;;;;34.08;19.25;;;;;;;-0.77;91.38;103661.84;6190170;23;20080;-78
2023/01/25 07:11:38;;;;;;;29.00;17.10;;;;;;;-0.77;91.53;103649.53;6190007;23;20014;-76
2023/01/25 07:14:05;;;;;;;29.83;16.27;;;;;;;-0.76;91.67;103645.84;6190038;23;20511;-77
2023/01/25 07:16:35;;;;;;;32.75;16.63;;;;;;;-0.74;91.47;103648.94;6163808;23;20068;-76
2023/01/25 07:19:03;;;;;;;32.28;17.27;;;;;;;-0.74;91.54;103637.72;6190082;23;20469;-76
2023/01/25 07:21:30;;;;;;;30.92;16.50;;;;;;;-0.69;91.20;103643.63;6190407;23;20018;-77
2023/01/25 07:24:01;;;;;;;29.35;16.45;;;;;;;-0.68;91.24;103642.56;6190011;23;20076;-77
2023/01/25 07:26:29;;;;;;;28.60;17.00;;;;;;;-0.70;91.24;103643.91;6189450;23;20081;-76
2023/01/25 07:28:57;;;;;;;31.30;17.13;;;;;;;-0.71;91.14;103642.34;6189951;23;20018;-77
2023/01/25 07:31:25;;;;;;;31.25;17.02;;;;;;;-0.75;91.31;103636.16;6163414;23;20108;-77
2023/01/25 07:33:56;;;;;;;33.25;17.85;;;;;;;-0.76;91.04;103639.84;6190026;23;20440;-77
2023/01/25 07:36:23;;;;;;;30.27;17.50;;;;;;;-0.73;91.21;103639.25;6190253;23;20021;-76
2023/01/25 07:38:54;;;;;;;31.45;17.52;;;;;;;-0.72;91.39;103638.19;6190000;23;20089;-77
2023/01/25 07:41:22;;;;;;;34.88;17.48;;;;;;;-0.67;91.22;103638.09;6138203;23;20384;-78
2023/01/25 07:43:50;;;;;;;35.80;17.65;;;;;;;-0.68;90.98;103641.78;6162902;23;20029;-79
2023/01/25 07:46:27;;;;;;;32.50;17.20;;;;;;;-0.71;90.83;103639.75;6163247;23;20014;-77
2023/01/25 07:48:54;;;;;;;35.42;17.88;;;;;;;-0.77;90.60;103633.06;6163535;23;20022;-77
2023/01/25 07:51:21;;;;;;;31.42;17.25;;;;;;;-0.75;91.01;103628.31;6189831;23;20013;-76
2023/01/25 07:53:51;;;;;;;34.03;18.35;;;;;;;-0.70;90.85;103618.53;6163203;23;20434;-77
2023/01/25 07:56:20;;;;;;;32.55;18.20;;;;;;;-0.68;90.71;103626.84;6189641;23;20014;-76
2023/01/25 07:58:47;;;;;;;39.72;18.45;;;;;;;-0.70;91.15;103622.97;6163232;23;20044;-75
2023/01/25 08:01:16;;;;;;;34.10;17.77;;;;;;;-0.68;90.96;103623.47;6190194;23;20526;-75
2023/01/25 08:03:43;;;;;;;39.78;19.00;;;;;;;-0.70;91.01;103613.28;6190214;23;20029;-75
2023/01/25 08:06:11;;;;;;;33.17;16.80;;;;;;;-0.76;91.37;103604.00;6190242;23;20853;-75
2023/01/25 08:08:44;;;;;;;36.00;17.20;;;;;;;-0.78;91.30;103606.13;6191294;23;20090;-75
2023/01/25 08:11:13;;;;;;;33.05;17.40;;;;;;;-0.81;91.51;103601.50;6190345;23;20014;-75
2023/01/25 08:13:40;;;;;;;34.28;16.70;;;;;;;-0.84;91.41;103611.78;6164889;23;20021;-76
2023/01/25 08:16:07;;;;;;;34.20;18.00;;;;;;;-0.88;91.66;103608.97;6164065;23;20119;-77
2023/01/25 08:18:34;;;;;;;34.60;16.90;;;;;;;-0.84;91.48;103614.38;6190311;23;20024;-77
2023/01/25 08:21:02;;;;;;;34.38;18.35;;;;;;;-0.81;91.28;103606.72;6189810;23;20013;-76
2023/01/25 08:23:31;;;;;;;35.42;19.08;;;;;;;-0.79;91.24;103607.19;6190384;23;20018;-78
2023/01/25 08:26:01;;;;;;;33.65;18.02;;;;;;;-0.75;91.23;103607.38;6163614;23;20021;-75
2023/01/25 08:28:28;;;;;;;37.65;19.38;;;;;;;-0.77;91.28;103607.66;6163856;23;20470;-76
2023/01/25 08:30:54;;;;;;;35.10;17.85;;;;;;;-0.78;91.48;103613.19;6189772;23;20450;-75
2023/01/25 08:33:23;;;;;;;33.53;17.92;;;;;;;-0.78;91.66;103611.34;6190287;23;20017;-77
2023/01/25 08:35:56;;;;;;;38.72;18.83;;;;;;;-0.81;91.48;103603.34;6190059;23;20514;-76
2023/01/25 08:38:22;;;;;;;38.20;19.05;;;;;;;-0.88;91.32;103614.19;6189692;23;20528;-77
2023/01/25 08:40:49;;;;;;;41.65;19.15;;;;;;;-0.88;91.64;103613.41;6189699;23;20025;-77
2023/01/25 08:43:16;;;;;;;34.33;18.63;;;;;;;-0.88;91.65;103610.78;6190030;23;20048;-77
2023/01/25 08:45:43;;;;;;;33.72;18.00;;;;;;;-0.86;91.83;103598.22;6189785;23;20028;-77
2023/01/25 08:48:14;;;;;;;38.10;18.85;;;;;;;-0.86;91.89;103606.81;6189028;23;20415;-77
2023/01/25 08:50:46;;;;;;;36.05;19.20;;;;;;;-0.84;92.12;103596.06;6189720;23;20017;-76
2023/01/25 08:53:13;;;;;;;27.13;15.23;;;;;;;-0.78;91.94;103592.25;6163395;23;20014;-76
2023/01/25 08:55:41;;;;;;;37.17;19.35;;;;;;;-0.82;92.03;103586.09;6189956;23;20431;-76
2023/01/25 08:58:12;;;;;;;37.28;18.58;;;;;;;-0.83;92.34;103581.94;6189715;23;20550;-77
2023/01/25 09:00:40;;;;;;;39.35;19.63;;;;;;;-0.83;92.25;103580.09;6189981;23;20047;-77
2023/01/25 09:03:09;;;;;;;34.97;18.25;;;;;;;-0.85;92.15;103577.00;6189635;23;20020;-77
2023/01/25 09:05:37;;;;;;;33.00;16.88;;;;;;;-0.79;92.52;103581.03;6188137;23;20076;-76
2023/01/25 09:08:05;;;;;;;41.35;19.40;;;;;;;-0.77;92.64;103581.50;6188536;23;20030;-78
2023/01/25 09:10:34;;;;;;;36.13;18.70;;;;;;;-0.76;92.26;103585.69;6189521;23;20014;-76
2023/01/25 09:13:01;;;;;;;35.78;19.13;;;;;;;-0.75;92.18;103581.22;6189190;23;20017;-76
2023/01/25 09:15:27;;;;;;;41.30;20.30;;;;;;;-0.76;92.14;103583.06;6189309;23;20097;-76
2023/01/25 09:17:55;;;;;;;45.95;19.95;;;;;;;-0.73;92.58;103576.47;6188838;23;20456;-77
2023/01/25 09:20:22;;;;;;;36.53;18.52;;;;;;;-0.71;92.57;103564.66;6189627;23;20017;-76
2023/01/25 09:22:49;;;;;;;37.20;18.95;;;;;;;-0.71;91.83;103569.88;6188535;23;20443;-77
2023/01/25 09:25:16;;;;;;;40.05;18.63;;;;;;;-0.73;92.30;103566.00;6189005;23;20018;-77
2023/01/25 09:27:42;;;;;;;35.42;19.45;;;;;;;-0.70;92.35;103570.66;6189009;23;20022;-76
2023/01/25 09:30:09;;;;;;;37.38;19.05;;;;;;;-0.71;91.87;103566.50;6162573;23;20076;-76
2023/01/25 09:32:49;;;;;;;36.05;18.08;;;;;;;-0.70;92.09;103563.59;6162461;23;20443;-77
2023/01/25 09:35:16;;;;;;;31.10;16.63;;;;;;;-0.69;92.03;103570.38;6189122;23;20104;-77
2023/01/25 09:37:42;;;;;;;36.47;18.85;;;;;;;-0.67;91.90;103565.63;6188480;23;20021;-77
2023/01/25 09:40:19;;;;;;;45.25;20.05;;;;;;;-0.62;92.09;103564.75;6188662;23;20017;-76
2023/01/25 09:42:57;;;;;;;35.33;19.05;;;;;;;-0.60;92.05;103567.06;6189460;23;20018;-77
2023/01/25 09:45:31;;;;;;;41.50;19.45;;;;;;;-0.56;92.08;103558.34;6188943;23;20022;-77
2023/01/25 09:48:28;;;;;;;37.15;18.85;;;;;;;-0.52;91.95;103550.66;6188565;23;20057;-77
2023/01/25 09:51:21;;;;;;;36.97;17.83;;;;;;;-0.55;91.68;103553.88;6172445;23;20139;-77
2023/01/25 09:53:50;;;;;;;39.10;18.40;;;;;;;-0.50;91.77;103551.94;6189211;23;20022;-77
2023/01/25 09:56:25;;;;;;;38.10;19.75;;;;;;;-0.46;91.37;103546.88;6188956;23;20359;-77
2023/01/25 09:59:11;;;;;;;38.42;18.02;;;;;;;-0.48;91.42;103547.16;6189359;23;20104;-78
2023/01/25 10:02:04;;;;;;;39.90;19.20;;;;;;;-0.50;91.42;103556.38;6188485;23;20021;-77
2023/01/25 10:04:39;;;;;;;34.83;18.05;;;;;;;-0.54;91.39;103552.81;6190534;23;20024;-77
2023/01/25 10:07:19;;;;;;;40.03;19.30;;;;;;;-0.57;91.60;103548.94;6189451;23;20013;-78
2023/01/25 10:09:59;;;;;;;36.97;18.65;;;;;;;-0.57;91.66;103543.69;6189988;23;20466;-78
2023/01/25 10:12:35;;;;;;;42.63;19.15;;;;;;;-0.53;92.00;103534.19;6190378;23;20018;-78
2023/01/25 10:15:17;;;;;;;42.90;20.55;;;;;;;-0.58;91.71;103529.06;6189772;23;20498;-77
2023/01/25 10:17:45;;;;;;;40.15;19.95;;;;;;;-0.56;91.81;103520.91;6190205;23;20400;-77
2023/01/25 10:20:31;;;;;;;38.90;20.88;;;;;;;-0.55;91.95;103519.84;6189270;23;20206;-77
2023/01/25 10:23:21;;;;;;;39.72;18.65;;;;;;;-0.48;92.06;103520.22;6189860;23;20017;-78
2023/01/25 10:25:56;;;;;;;42.35;20.38;;;;;;;-0.50;91.74;103514.50;6145482;23;20028;-79
2023/01/25 10:28:35;;;;;;;39.95;19.95;;;;;;;-0.45;91.90;103509.16;6190182;23;20017;-78
2023/01/25 10:31:10;;;;;;;47.08;22.35;;;;;;;-0.44;91.62;103503.63;6189809;23;20153;-78
2023/01/25 10:33:42;;;;;;;37.97;19.20;;;;;;;-0.45;91.46;103503.94;6190155;23;20451;-78
2023/01/25 10:36:12;;;;;;;;;;;;;;;-0.44;91.41;103495.00;6189934;23;20084;-78
2023/01/25 10:38:44;;;;;;;37.33;18.10;;;;;;;-0.47;91.17;103492.97;6190137;23;19931;-77
2023/01/25 10:41:35;;;;;;;39.00;19.85;;;;;;;-0.48;91.86;103486.97;6188447;23;20017;-78
2023/01/25 10:44:44;;;;;;;44.40;19.17;;;;;;;-0.45;91.34;103490.84;6189627;23;20013;-78
2023/01/25 10:47:00;;;;;;;37.67;19.70;;;;;;;-0.39;91.62;103479.94;6184138;23;20021;-77
2023/01/25 10:49:37;;;;;;;42.30;20.75;;;;;;;-0.31;91.12;103480.28;6189680;23;20097;-76
2023/01/25 10:52:20;;;;;;;47.38;21.63;;;;;;;-0.36;91.15;103476.72;6190148;23;20022;-78
2023/01/25 10:54:51;;;;;;;47.25;22.85;;;;;;;-0.29;91.55;103476.31;6188652;23;20025;-78
2023/01/25 10:57:20;;;;;;;48.03;21.60;;;;;;;-0.25;91.48;103466.03;6190178;23;20475;-76
2023/01/25 10:59:50;;;;;;;420.77;223.85;;;;;;;-0.30;91.33;103463.53;6189763;23;20045;-76
2023/01/25 11:02:35;;;;;;;57.63;29.13;;;;;;;-0.35;91.23;103457.34;6190256;23;20025;-77
2023/01/25 11:05:17;;;;;;;42.45;21.98;;;;;;;-0.31;91.10;103449.66;6189231;23;20442;-75
2023/01/25 11:07:47;;;;;;;;;;;;;;;-0.26;91.03;103446.91;6190708;23;20411;-77
2023/01/25 11:10:35;;;;;;;38.85;18.00;;;;;;;-0.32;90.80;103445.50;6189613;23;20311;-76
2023/01/25 11:13:14;;;;;;;40.33;18.65;;;;;;;-0.41;90.66;103432.38;6189622;23;20081;-76
2023/01/25 11:15:49;;;;;;;41.05;19.02;;;;;;;-0.49;90.89;103424.47;6189858;23;20014;-78
2023/01/25 11:18:27;;;;;;;38.13;18.98;;;;;;;-0.48;90.52;103418.16;6189637;23;20499;-77
2023/01/25 11:21:17;;;;;;;42.00;18.75;;;;;;;-0.51;90.58;103416.91;6190832;23;20014;-76
2023/01/25 11:23:58;;;;;;;36.10;18.20;;;;;;;-0.54;90.57;103417.50;6188330;23;20018;-75
2023/01/25 11:26:24;;;;;;;35.60;17.95;;;;;;;-0.58;90.84;103405.31;6188461;23;20028;-78
2023/01/25 11:29:06;;;;;;;34.92;17.10;;;;;;;-0.55;90.54;103405.50;6187827;23;20541;-78